Time;durP1;ratioP1;P1;durP2;ratioP2;P2;SDS_P1;SDS_P2;PMS_P1;PMS_P2;Temp;Humidity;BMP_temperature;BMP_pressure;BME280_temperature;BME280_humidity;BME280_pressure;Samples;Min_cycle;Max_cycle;Signal;HPM_P1;HPM_P2
2023/08/06 02:01:11;;;;;;;51.22;7.50;;;;;;;;;;4712978;27;20067;-75
2023/08/06 02:03:38;;;;;;;8.75;6.85;;;;;;;;;;4309248;33;20088;-75
2023/08/06 02:06:04;;;;;;;59.85;7.00;;;;;;;;;;4307647;33;20061;-76
2023/08/06 02:08:30;;;;;;;71.47;6.28;;;;;;;;;;4303563;33;20044;-76
2023/08/06 02:10:58;;;;;;;34.45;5.05;;;;;;;;;;4309506;33;20090;-76
2023/08/06 02:13:24;;;;;;;51.13;5.47;;;;;;;;;;4309583;33;20520;-76
2023/08/06 02:15:50;;;;;;;54.60;4.10;;;;;;;;;;4309474;33;20041;-75
2023/08/06 02:18:17;;;;;;;52.33;4.40;;;;;;;;;;4308015;33;20044;-75
2023/08/06 02:20:43;;;;;;;55.42;4.97;;;;;;;;;;4304887;33;20104;-78
2023/08/06 02:23:09;;;;;;;38.55;3.92;;;;;;;;;;4280253;33;20198;-78
2023/08/06 02:25:35;;;;;;;6.70;3.33;;;;;;;;;;4280524;33;20112;-77
2023/08/06 02:28:01;;;;;;;3.40;3.10;;;;;;;;;;4279896;33;20482;-78
2023/08/06 02:30:27;;;;;;;6.43;4.03;;;;;;;;;;4271297;33;20032;-78
2023/08/06 02:32:54;;;;;;;3.55;3.25;;;;;;;;;;4271445;33;20060;-77
2023/08/06 02:35:20;;;;;;;3.42;3.15;;;;;;;;;;4264570;33;20559;-77
2023/08/06 02:37:46;;;;;;;2.87;2.67;;;;;;;;;;4255182;33;20502;-77
2023/08/06 02:40:12;;;;;;;6.00;2.90;;;;;;;;;;4251310;33;20034;-77
2023/08/06 02:42:38;;;;;;;3.42;3.12;;;;;;;;;;4249873;33;20045;-77
2023/08/06 02:45:04;;;;;;;11.23;3.40;;;;;;;;;;4241361;33;20774;-78
2023/08/06 02:47:31;;;;;;;10.10;3.22;;;;;;;;;;4237593;33;20066;-77
2023/08/06 02:49:57;;;;;;;7.00;3.75;;;;;;;;;;4237476;33;20491;-77
2023/08/06 02:52:24;;;;;;;5.25;3.75;;;;;;;;;;4237233;33;20042;-79
2023/08/06 02:54:51;;;;;;;8.43;3.92;;;;;;;;;;4245805;33;20379;-77
2023/08/06 02:57:17;;;;;;;14.80;3.75;;;;;;;;;;4254077;33;20062;-77
2023/08/06 02:59:43;;;;;;;37.83;4.53;;;;;;;;;;4275355;33;20063;-78
2023/08/06 03:02:09;;;;;;;5.00;4.45;;;;;;;;;;4292682;33;20356;-78
2023/08/06 03:04:36;;;;;;;8.98;4.05;;;;;;;;;;4295597;33;20365;-78
2023/08/06 03:07:03;;;;;;;5.65;3.92;;;;;;;;;;4298800;33;20078;-77
2023/08/06 03:09:31;;;;;;;4.90;4.40;;;;;;;;;;4309878;33;20380;-78
2023/08/06 03:11:58;;;;;;;9.00;4.07;;;;;;;;;;4311162;33;20448;-77
2023/08/06 03:14:24;;;;;;;6.47;3.47;;;;;;;;;;4309760;33;20124;-77
2023/08/06 03:16:51;;;;;;;5.45;4.10;;;;;;;;;;4309177;33;20094;-77
2023/08/06 03:19:18;;;;;;;4.95;3.87;;;;;;;;;;4309223;33;20091;-77
2023/08/06 03:21:44;;;;;;;4.32;3.92;;;;;;;;;;4301719;33;20041;-77
2023/08/06 03:24:13;;;;;;;10.40;3.85;;;;;;;;;;4292953;33;20038;-78
2023/08/06 03:26:40;;;;;;;8.20;4.15;;;;;;;;;;4299021;33;20079;-78
2023/08/06 03:29:05;;;;;;;4.25;3.67;;;;;;;;;;4309894;33;20101;-78
2023/08/06 03:31:33;;;;;;;9.38;4.00;;;;;;;;;;4295660;33;20049;-78
2023/08/06 03:33:59;;;;;;;18.02;4.43;;;;;;;;;;4297119;33;20042;-77
2023/08/06 03:36:25;;;;;;;16.23;5.03;;;;;;;;;;4294038;33;20050;-77
2023/08/06 03:38:52;;;;;;;11.85;4.97;;;;;;;;;;4302763;33;20402;-77
2023/08/06 03:41:18;;;;;;;11.07;4.07;;;;;;;;;;4311620;33;20879;-76
2023/08/06 03:43:44;;;;;;;5.78;4.68;;;;;;;;;;4311359;33;20033;-76
2023/08/06 03:46:11;;;;;;;5.62;5.12;;;;;;;;;;4307165;33;20082;-76
2023/08/06 03:48:37;;;;;;;8.57;5.00;;;;;;;;;;4301176;33;20861;-75
2023/08/06 03:51:03;;;;;;;22.75;5.37;;;;;;;;;;4297476;33;20041;-77
2023/08/06 03:53:30;;;;;;;28.85;5.25;;;;;;;;;;4299199;33;20053;-78
2023/08/06 03:55:59;;;;;;;27.67;5.70;;;;;;;;;;4299095;33;20053;-77
2023/08/06 03:58:32;;;;;;;84.05;7.50;;;;;;;;;;4298370;33;20063;-77
2023/08/06 04:01:02;;;;;;;39.33;5.55;;;;;;;;;;4297882;33;20071;-77
2023/08/06 04:03:29;;;;;;;63.00;5.95;;;;;;;;;;4297826;33;20469;-78
2023/08/06 04:05:55;;;;;;;33.97;5.45;;;;;;;;;;4299367;33;20053;-77
2023/08/06 04:08:21;;;;;;;74.65;5.78;;;;;;;;;;4298817;33;20075;-77
2023/08/06 04:10:52;;;;;;;57.42;5.07;;;;;;;;;;4296839;33;20489;-77
2023/08/06 04:13:17;;;;;;;91.12;6.00;;;;;;;;;;4299063;33;20071;-78
2023/08/06 04:15:44;;;;;;;177.60;7.47;;;;;;;;;;4298094;33;20053;-79
2023/08/06 04:18:10;;;;;;;118.03;5.95;;;;;;;;;;4307262;33;20041;-78
2023/08/06 04:20:43;;;;;;;118.68;6.72;;;;;;;;;;4311539;33;20070;-77
2023/08/06 04:23:09;;;;;;;95.07;6.25;;;;;;;;;;4308859;33;20048;-79
2023/08/06 04:25:36;;;;;;;124.62;6.30;;;;;;;;;;4314248;33;20049;-79
2023/08/06 04:28:02;;;;;;;117.97;6.43;;;;;;;;;;4312225;33;20079;-79
2023/08/06 04:30:28;;;;;;;90.95;5.85;;;;;;;;;;4311887;33;20414;-78
2023/08/06 04:32:56;;;;;;;60.88;5.62;;;;;;;;;;4311692;33;20860;-79
2023/08/06 04:35:22;;;;;;;135.98;6.78;;;;;;;;;;4296261;33;20049;-79
2023/08/06 04:37:48;;;;;;;168.57;7.45;;;;;;;;;;4290769;33;20080;-79
2023/08/06 04:40:15;;;;;;;85.95;6.07;;;;;;;;;;4294681;33;20053;-78
2023/08/06 04:42:41;;;;;;;102.82;8.13;;;;;;;;;;4288800;33;20064;-79
2023/08/06 04:45:13;;;;;;;77.72;5.70;;;;;;;;;;4296285;33;20037;-79
2023/08/06 04:47:39;;;;;;;74.47;6.30;;;;;;;;;;4295336;33;20421;-79
2023/08/06 04:50:05;;;;;;;175.15;7.12;;;;;;;;;;4288674;33;20053;-78
2023/08/06 04:52:32;;;;;;;88.93;6.30;;;;;;;;;;4279599;33;20092;-79
2023/08/06 04:54:58;;;;;;;88.40;6.30;;;;;;;;;;4280853;33;20093;-80
2023/08/06 04:57:24;;;;;;;60.42;6.95;;;;;;;;;;4280688;33;20052;-79
2023/08/06 04:59:50;;;;;;;49.83;6.18;;;;;;;;;;4281968;33;20146;-79
2023/08/06 05:02:16;;;;;;;47.65;6.85;;;;;;;;;;4265965;33;20080;-77
2023/08/06 05:04:43;;;;;;;25.85;6.37;;;;;;;;;;4255004;33;20542;-78
2023/08/06 05:07:10;;;;;;;56.13;6.97;;;;;;;;;;4263487;33;20049;-77
2023/08/06 05:09:36;;;;;;;40.83;6.43;;;;;;;;;;4267687;33;20087;-77
2023/08/06 05:12:04;;;;;;;24.23;7.03;;;;;;;;;;4270288;33;20042;-77
2023/08/06 05:14:29;;;;;;;14.30;6.15;;;;;;;;;;4280093;33;20139;-77
2023/08/06 05:16:56;;;;;;;14.55;5.75;;;;;;;;;;4279842;33;20046;-77
2023/08/06 05:19:22;;;;;;;14.18;6.03;;;;;;;;;;4269379;33;20034;-77
2023/08/06 05:21:48;;;;;;;6.60;5.20;;;;;;;;;;4265956;33;20068;-77
2023/08/06 05:24:14;;;;;;;11.48;6.03;;;;;;;;;;4263713;33;20046;-77
2023/08/06 05:26:40;;;;;;;11.00;6.03;;;;;;;;;;4273502;33;20083;-77
2023/08/06 05:29:06;;;;;;;17.67;6.68;;;;;;;;;;4276812;33;20049;-75
2023/08/06 05:31:33;;;;;;;13.13;6.35;;;;;;;;;;4266811;33;20769;-76
2023/08/06 05:33:59;;;;;;;5.85;5.35;;;;;;;;;;4282011;33;20033;-81
2023/08/06 05:36:25;;;;;;;7.12;5.47;;;;;;;;;;4269057;33;20045;-81
2023/08/06 05:38:51;;;;;;;7.65;5.60;;;;;;;;;;4267029;33;20056;-79
2023/08/06 05:41:17;;;;;;;7.60;5.50;;;;;;;;;;4280244;33;20050;-78
2023/08/06 05:43:43;;;;;;;6.43;5.68;;;;;;;;;;4281207;33;20053;-79
2023/08/06 05:46:10;;;;;;;5.72;5.10;;;;;;;;;;4280583;33;20118;-79
2023/08/06 05:48:36;;;;;;;8.23;5.90;;;;;;;;;;4265674;33;20038;-80
2023/08/06 05:51:02;;;;;;;13.23;6.22;;;;;;;;;;4264069;33;20076;-78
2023/08/06 05:53:28;;;;;;;8.40;6.47;;;;;;;;;;4265648;33;20160;-79
2023/08/06 05:55:54;;;;;;;16.67;8.25;;;;;;;;;;4268084;33;20061;-79
2023/08/06 05:58:20;;;;;;;27.70;9.15;;;;;;;;;;4265070;33;20033;-80
2023/08/06 06:00:47;;;;;;;16.77;9.68;;;;;;;;;;4263721;33;20050;-77
2023/08/06 06:03:13;;;;;;;19.15;8.63;;;;;;;;;;4258449;33;20046;-80
2023/08/06 06:05:39;;;;;;;22.73;10.35;;;;;;;;;;4266411;33;20075;-79
2023/08/06 06:08:05;;;;;;;14.40;9.57;;;;;;;;;;4274777;33;20413;-79
2023/08/06 06:10:32;;;;;;;14.57;9.50;;;;;;;;;;4265858;33;20373;-80
2023/08/06 06:12:58;;;;;;;12.40;8.60;;;;;;;;;;4266606;33;20107;-79
2023/08/06 06:15:24;;;;;;;17.98;8.73;;;;;;;;;;4265759;33;20042;-78
2023/08/06 06:17:50;;;;;;;9.18;6.75;;;;;;;;;;4270364;33;20081;-78
2023/08/06 06:20:16;;;;;;;9.95;7.15;;;;;;;;;;4277772;33;20505;-79
2023/08/06 06:22:42;;;;;;;8.05;7.25;;;;;;;;;;4283377;33;20025;-79
2023/08/06 06:25:10;;;;;;;8.40;7.43;;;;;;;;;;4296954;33;20078;-77
2023/08/06 06:27:36;;;;;;;8.27;6.45;;;;;;;;;;4304515;33;20074;-81
2023/08/06 06:30:02;;;;;;;9.85;6.25;;;;;;;;;;4296557;33;20497;-80
2023/08/06 06:32:28;;;;;;;9.75;6.25;;;;;;;;;;4294947;33;20057;-80
2023/08/06 06:34:55;;;;;;;12.77;7.40;;;;;;;;;;4306410;33;20074;-79
2023/08/06 06:37:21;;;;;;;6.93;5.72;;;;;;;;;;4305726;33;20033;-78
2023/08/06 06:39:47;;;;;;;6.30;5.70;;;;;;;;;;4307652;33;20060;-82
2023/08/06 06:42:14;;;;;;;7.55;6.40;;;;;;;;;;4292452;33;20104;-79
2023/08/06 06:44:42;;;;;;;7.25;6.25;;;;;;;;;;4292944;33;20052;-81
2023/08/06 06:47:08;;;;;;;6.95;6.25;;;;;;;;;;4294335;33;20092;-82
2023/08/06 06:49:34;;;;;;;7.40;6.10;;;;;;;;;;4292171;33;20046;-79
2023/08/06 06:52:00;;;;;;;6.07;5.47;;;;;;;;;;4294308;33;20083;-79
2023/08/06 06:54:26;;;;;;;8.27;6.65;;;;;;;;;;4293243;33;20052;-79
2023/08/06 06:56:52;;;;;;;8.60;7.00;;;;;;;;;;4285594;33;20068;-80
2023/08/06 06:59:18;;;;;;;9.30;7.07;;;;;;;;;;4280014;33;20392;-79
2023/08/06 07:01:45;;;;;;;9.80;7.40;;;;;;;;;;4258860;33;20084;-80
2023/08/06 07:04:17;;;;;;;11.00;7.30;;;;;;;;;;4279109;33;20404;-79
2023/08/06 07:06:43;;;;;;;10.05;7.32;;;;;;;;;;4259308;33;20081;-78
2023/08/06 07:09:10;;;;;;;13.40;7.65;;;;;;;;;;4243563;33;20428;-79
2023/08/06 07:11:35;;;;;;;11.85;8.35;;;;;;;;;;4247989;33;20416;-79
2023/08/06 07:14:02;;;;;;;13.43;8.85;;;;;;;;;;4255084;33;20423;-79
2023/08/06 07:16:29;;;;;;;10.93;7.87;;;;;;;;;;4264301;33;20053;-79
2023/08/06 07:18:55;;;;;;;14.80;8.75;;;;;;;;;;4264856;33;20516;-81
2023/08/06 07:21:21;;;;;;;19.67;8.90;;;;;;;;;;4268142;33;20068;-79
2023/08/06 07:23:49;;;;;;;10.45;8.10;;;;;;;;;;4269310;33;20127;-80
2023/08/06 07:26:16;;;;;;;12.13;7.85;;;;;;;;;;4264299;33;20049;-79
2023/08/06 07:28:42;;;;;;;10.10;8.00;;;;;;;;;;4254178;33;20090;-78
2023/08/06 07:31:08;;;;;;;14.40;7.55;;;;;;;;;;4224100;33;20075;-81
2023/08/06 07:33:35;;;;;;;12.20;8.57;;;;;;;;;;4241168;33;20076;-79
2023/08/06 07:36:07;;;;;;;10.25;7.93;;;;;;;;;;4225673;33;20161;-77
2023/08/06 07:38:33;;;;;;;12.90;7.65;;;;;;;;;;4223810;33;20046;-78
2023/08/06 07:41:01;;;;;;;14.45;8.10;;;;;;;;;;4238519;33;20050;-79
2023/08/06 07:43:27;;;;;;;13.00;8.73;;;;;;;;;;4216220;34;20502;-78
2023/08/06 07:45:54;;;;;;;11.95;8.20;;;;;;;;;;4225039;34;20076;-77
2023/08/06 07:48:20;;;;;;;15.88;8.55;;;;;;;;;;4221652;33;20200;-78
2023/08/06 07:50:50;;;;;;;13.00;8.63;;;;;;;;;;4223418;34;20058;-79
2023/08/06 07:53:16;;;;;;;12.93;9.20;;;;;;;;;;4222413;33;20420;-78
2023/08/06 07:55:52;;;;;;;12.82;8.43;;;;;;;;;;4221156;33;20065;-79
2023/08/06 07:58:19;;;;;;;13.23;9.40;;;;;;;;;;4219419;33;20090;-79
2023/08/06 08:00:46;;;;;;;14.73;9.88;;;;;;;;;;4214212;33;20039;-77
2023/08/06 08:03:15;;;;;;;13.20;9.15;;;;;;;;;;4221703;33;20397;-78
2023/08/06 08:05:42;;;;;;;13.43;9.80;;;;;;;;;;4210533;33;20060;-80
2023/08/06 08:08:09;;;;;;;15.93;9.77;;;;;;;;;;4212496;33;20077;-80
2023/08/06 08:10:36;;;;;;;15.80;9.73;;;;;;;;;;4238698;33;20072;-79
2023/08/06 08:13:02;;;;;;;21.75;9.85;;;;;;;;;;4238905;33;20135;-81
2023/08/06 08:15:29;;;;;;;12.80;8.95;;;;;;;;;;4263707;33;20067;-80
2023/08/06 08:17:55;;;;;;;15.90;9.73;;;;;;;;;;4270288;33;20046;-82
2023/08/06 08:20:21;;;;;;;16.65;8.75;;;;;;;;;;4263919;33;20065;-76
2023/08/06 08:22:47;;;;;;;18.85;9.93;;;;;;;;;;4266798;33;20100;-76
2023/08/06 08:25:14;;;;;;;16.40;8.98;;;;;;;;;;4269192;33;20041;-79
2023/08/06 08:27:40;;;;;;;17.90;9.98;;;;;;;;;;4278015;33;20530;-78
2023/08/06 08:30:06;;;;;;;15.27;10.07;;;;;;;;;;4279918;33;20125;-78
2023/08/06 08:32:32;;;;;;;13.70;10.07;;;;;;;;;;4277894;33;20061;-76
2023/08/06 08:34:58;;;;;;;12.32;9.40;;;;;;;;;;4281212;33;20112;-87
2023/08/06 08:37:24;;;;;;;14.40;10.25;;;;;;;;;;4267763;33;20095;-78
2023/08/06 08:39:52;;;;;;;20.73;11.15;;;;;;;;;;4272385;33;20046;-79
2023/08/06 08:42:18;;;;;;;15.13;10.27;;;;;;;;;;4273220;33;20499;-76
2023/08/06 08:44:44;;;;;;;18.37;12.00;;;;;;;;;;4265470;33;20054;-79
2023/08/06 08:47:11;;;;;;;18.05;12.27;;;;;;;;;;4266145;33;20067;-79
2023/08/06 08:49:37;;;;;;;14.23;9.85;;;;;;;;;;4281571;33;20053;-79
2023/08/06 08:52:07;;;;;;;15.43;10.88;;;;;;;;;;4280532;33;20059;-77
2023/08/06 08:54:35;;;;;;;15.82;10.13;;;;;;;;;;4281155;33;20049;-77
2023/08/06 08:57:01;;;;;;;17.73;11.25;;;;;;;;;;4274576;33;20611;-77
2023/08/06 08:59:27;;;;;;;17.77;11.02;;;;;;;;;;4272444;33;20068;-78
2023/08/06 09:01:54;;;;;;;16.20;10.93;;;;;;;;;;4255720;33;20068;-77
2023/08/06 09:04:21;;;;;;;15.90;11.27;;;;;;;;;;4250745;33;20034;-77
2023/08/06 09:06:50;;;;;;;14.87;10.57;;;;;;;;;;4246289;33;20507;-76
2023/08/06 09:09:25;;;;;;;12.82;9.38;;;;;;;;;;4247214;33;20073;-76
2023/08/06 09:11:51;;;;;;;12.77;8.73;;;;;;;;;;4254753;33;20074;-76
2023/08/06 09:14:17;;;;;;;12.27;9.15;;;;;;;;;;4262082;33;20099;-76
2023/08/06 09:16:44;;;;;;;11.85;8.45;;;;;;;;;;4275806;33;20369;-76
2023/08/06 09:19:12;;;;;;;12.20;9.05;;;;;;;;;;4273460;33;20119;-74
2023/08/06 09:21:39;;;;;;;12.35;8.77;;;;;;;;;;4288587;33;20564;-75
2023/08/06 09:24:09;;;;;;;14.10;9.80;;;;;;;;;;4287827;33;20334;-75
2023/08/06 09:26:36;;;;;;;11.70;7.28;;;;;;;;;;4288821;33;20046;-75
2023/08/06 09:29:04;;;;;;;9.70;7.85;;;;;;;;;;4282588;33;20052;-76
2023/08/06 09:31:43;;;;;;;12.52;8.68;;;;;;;;;;4263882;33;20751;-75
2023/08/06 09:34:24;;;;;;;10.10;8.57;;;;;;;;;;4249377;33;20067;-76
2023/08/06 09:36:51;;;;;;;13.43;9.35;;;;;;;;;;4248231;33;20479;-76
2023/08/06 09:39:27;;;;;;;11.68;8.90;;;;;;;;;;4251981;33;20034;-76
2023/08/06 09:41:58;;;;;;;11.30;8.25;;;;;;;;;;4251839;33;20058;-75
2023/08/06 09:44:26;;;;;;;14.07;8.82;;;;;;;;;;4249430;33;20046;-75
2023/08/06 09:46:53;;;;;;;13.52;9.25;;;;;;;;;;4251504;33;20055;-76
2023/08/06 09:49:20;;;;;;;15.88;10.20;;;;;;;;;;4251404;33;20034;-76
2023/08/06 09:51:50;;;;;;;13.18;9.10;;;;;;;;;;4250006;33;20815;-76
2023/08/06 09:54:16;;;;;;;14.82;9.60;;;;;;;;;;4248704;33;20085;-76
2023/08/06 09:56:49;;;;;;;16.27;10.35;;;;;;;;;;4238123;33;20072;-76
2023/08/06 09:59:16;;;;;;;16.58;9.95;;;;;;;;;;4238252;33;20065;-76
2023/08/06 10:01:43;;;;;;;14.02;10.57;;;;;;;;;;4242578;33;20453;-76
2023/08/06 10:04:11;;;;;;;15.20;10.73;;;;;;;;;;4259678;33;20124;-76
2023/08/06 10:06:38;;;;;;;17.05;10.52;;;;;;;;;;4259617;33;20177;-76
2023/08/06 10:09:04;;;;;;;17.62;10.95;;;;;;;;;;4263841;33;20170;-74
2023/08/06 10:11:31;;;;;;;21.15;10.45;;;;;;;;;;4265190;33;20176;-76
2023/08/06 10:14:00;;;;;;;37.38;17.98;;;;;;;;;;4265569;33;20053;-76
2023/08/06 10:16:27;;;;;;;20.37;11.55;;;;;;;;;;4263846;33;20050;-76
2023/08/06 10:18:54;;;;;;;17.55;11.95;;;;;;;;;;4264590;33;20322;-76
2023/08/06 10:21:21;;;;;;;18.42;11.77;;;;;;;;;;4265200;33;20042;-76
2023/08/06 10:23:53;;;;;;;26.35;13.23;;;;;;;;;;4265578;33;20098;-75
2023/08/06 10:26:20;;;;;;;17.95;12.40;;;;;;;;;;4264267;33;20041;-76
2023/08/06 10:28:46;;;;;;;23.83;14.30;;;;;;;;;;4291686;33;20391;-76
2023/08/06 10:31:12;;;;;;;16.50;12.73;;;;;;;;;;4296732;33;20045;-76
2023/08/06 10:33:45;;;;;;;18.58;13.15;;;;;;;;;;4298859;33;20092;-77
2023/08/06 10:36:11;;;;;;;17.62;11.77;;;;;;;;;;4301840;33;20045;-76
2023/08/06 10:38:44;;;;;;;24.67;13.98;;;;;;;;;;4292867;33;20094;-77
2023/08/06 10:41:15;;;;;;;24.15;15.10;;;;;;;;;;4294848;33;20107;-77
2023/08/06 10:43:43;;;;;;;22.00;14.40;;;;;;;;;;4293726;33;20079;-77
2023/08/06 10:46:10;;;;;;;19.33;13.73;;;;;;;;;;4292212;33;20049;-77
2023/08/06 10:48:37;;;;;;;25.33;15.40;;;;;;;;;;4294611;33;20041;-77
2023/08/06 10:51:08;;;;;;;49.17;23.15;;;;;;;;;;4293448;33;20048;-76
2023/08/06 10:53:34;;;;;;;24.98;15.75;;;;;;;;;;4280627;33;20635;-77
2023/08/06 10:56:32;;;;;;;31.23;16.15;;;;;;;;;;4276887;33;20045;-76
2023/08/06 10:58:58;;;;;;;25.10;15.77;;;;;;;;;;4219587;33;20108;-76
2023/08/06 11:01:28;;;;;;;26.77;15.70;;;;;;;;;;4369680;28;20110;-76
2023/08/06 11:03:54;;;;;;;23.45;14.50;;;;;;;;;;4207073;34;20085;-77
2023/08/06 11:06:22;;;;;;;29.65;15.48;;;;;;;;;;4211496;34;20050;-77
2023/08/06 11:08:49;;;;;;;21.95;14.45;;;;;;;;;;4222323;34;20502;-76
2023/08/06 11:11:15;;;;;;;30.00;14.80;;;;;;;;;;4222348;34;20399;-77
2023/08/06 11:13:42;;;;;;;24.83;15.23;;;;;;;;;;4223441;34;20097;-76
2023/08/06 11:16:09;;;;;;;21.67;15.45;;;;;;;;;;4222189;34;20412;-76
2023/08/06 11:18:35;;;;;;;21.73;14.10;;;;;;;;;;4222703;33;20098;-76
2023/08/06 11:21:02;;;;;;;23.77;16.20;;;;;;;;;;4220345;34;20136;-77
2023/08/06 11:23:31;;;;;;;22.08;14.63;;;;;;;;;;4223887;33;20050;-77
2023/08/06 11:25:57;;;;;;;19.67;13.80;;;;;;;;;;4241191;33;20476;-77
2023/08/06 11:28:24;;;;;;;26.08;15.15;;;;;;;;;;4243467;33;20397;-77
2023/08/06 11:30:50;;;;;;;29.90;14.52;;;;;;;;;;4240418;33;20068;-77
2023/08/06 11:33:21;;;;;;;18.85;13.85;;;;;;;;;;4237976;33;20046;-76
2023/08/06 11:35:47;;;;;;;18.27;12.77;;;;;;;;;;4265296;33;20046;-78
2023/08/06 11:38:14;;;;;;;17.20;14.13;;;;;;;;;;4266605;33;20143;-78
2023/08/06 11:40:40;;;;;;;18.42;12.10;;;;;;;;;;4257608;33;20046;-78
2023/08/06 11:43:06;;;;;;;15.63;13.05;;;;;;;;;;4260242;33;20061;-77
2023/08/06 11:45:35;;;;;;;29.92;14.75;;;;;;;;;;4261316;33;20054;-75
2023/08/06 11:48:00;;;;;;;90.03;42.08;;;;;;;;;;4243322;33;20035;-75
2023/08/06 11:50:27;;;;;;;16.23;13.07;;;;;;;;;;4244568;33;20039;-76
2023/08/06 11:52:56;;;;;;;177.60;90.95;;;;;;;;;;4240757;33;20050;-76
2023/08/06 11:55:23;;;;;;;19.77;14.40;;;;;;;;;;4240033;33;20080;-76
2023/08/06 11:57:49;;;;;;;19.20;13.90;;;;;;;;;;4238219;33;20042;-76
2023/08/06 12:00:21;;;;;;;28.73;16.73;;;;;;;;;;4223069;33;20393;-76
2023/08/06 12:02:49;;;;;;;32.40;17.87;;;;;;;;;;4205348;34;20047;-76
2023/08/06 12:05:16;;;;;;;28.02;14.82;;;;;;;;;;4206331;34;20047;-75
2023/08/06 12:07:45;;;;;;;25.52;14.40;;;;;;;;;;4207847;34;20892;-77
2023/08/06 12:10:12;;;;;;;11.25;6.50;;;;;;;;;;4209599;34;20096;-78
2023/08/06 12:12:38;;;;;;;5.28;3.10;;;;;;;;;;4211812;34;20482;-77
2023/08/06 12:15:06;;;;;;;3.28;3.05;;;;;;;;;;4208573;34;20047;-76
2023/08/06 12:17:32;;;;;;;2.70;2.50;;;;;;;;;;4208549;34;20098;-76
2023/08/06 12:19:58;;;;;;;3.20;2.15;;;;;;;;;;4222966;33;20051;-76
2023/08/06 12:22:24;;;;;;;2.00;1.87;;;;;;;;;;4225625;33;20068;-77
2023/08/06 12:24:51;;;;;;;1.60;1.50;;;;;;;;;;4224158;33;20073;-76
2023/08/06 12:27:17;;;;;;;4.28;1.35;;;;;;;;;;4228529;33;20062;-77
2023/08/06 12:29:47;;;;;;;1.73;1.50;;;;;;;;;;4225012;33;21653;-79
2023/08/06 12:32:14;;;;;;;2.53;1.20;;;;;;;;;;4222808;33;20072;-77
2023/08/06 12:34:41;;;;;;;3.47;1.20;;;;;;;;;;4225660;33;20489;-78
2023/08/06 12:37:13;;;;;;;1.23;1.23;;;;;;;;;;4230136;33;20039;-77
2023/08/06 12:39:40;;;;;;;1.20;1.20;;;;;;;;;;4228273;33;20050;-77
2023/08/06 12:42:06;;;;;;;1.60;1.00;;;;;;;;;;4235619;33;20073;-78
2023/08/06 12:44:32;;;;;;;0.80;0.80;;;;;;;;;;4237544;33;20075;-79
2023/08/06 12:46:58;;;;;;;1.40;1.35;;;;;;;;;;4238029;33;20038;-76
2023/08/06 12:49:25;;;;;;;1.40;1.40;;;;;;;;;;4238291;33;20049;-76
2023/08/06 12:51:52;;;;;;;1.17;1.17;;;;;;;;;;4234161;33;20120;-77
2023/08/06 12:54:19;;;;;;;6.47;1.58;;;;;;;;;;4234506;33;20054;-77
2023/08/06 12:56:45;;;;;;;1.20;1.20;;;;;;;;;;4222670;33;20034;-78
2023/08/06 12:59:13;;;;;;;1.20;1.20;;;;;;;;;;4222597;33;20104;-74
2023/08/06 13:01:39;;;;;;;1.73;1.42;;;;;;;;;;4219080;33;20047;-76
2023/08/06 13:04:06;;;;;;;1.70;1.60;;;;;;;;;;4212660;34;20542;-77
2023/08/06 13:06:36;;;;;;;1.70;1.52;;;;;;;;;;4214343;34;20149;-77
2023/08/06 13:09:03;;;;;;;1.30;1.30;;;;;;;;;;4196756;34;20051;-77
2023/08/06 13:11:36;;;;;;;1.50;1.37;;;;;;;;;;4200727;34;20070;-77
2023/08/06 13:14:06;;;;;;;1.35;1.35;;;;;;;;;;4204657;34;20093;-77
2023/08/06 13:16:35;;;;;;;1.08;1.08;;;;;;;;;;4190883;34;20102;-77
2023/08/06 13:19:02;;;;;;;0.90;0.90;;;;;;;;;;4205699;34;20456;-78
2023/08/06 13:21:33;;;;;;;1.17;1.17;;;;;;;;;;4233010;33;20140;-77
2023/08/06 13:23:59;;;;;;;0.90;0.90;;;;;;;;;;4236793;33;20146;-77
2023/08/06 13:26:25;;;;;;;3.17;0.90;;;;;;;;;;4237943;33;20077;-78
2023/08/06 13:28:51;;;;;;;1.40;1.40;;;;;;;;;;4250489;33;20106;-77
2023/08/06 13:31:17;;;;;;;1.15;1.15;;;;;;;;;;4248654;33;20105;-77
2023/08/06 13:33:44;;;;;;;1.55;1.45;;;;;;;;;;4242975;33;20046;-77
2023/08/06 13:36:10;;;;;;;8.75;1.35;;;;;;;;;;4249816;33;20524;-78
2023/08/06 13:38:36;;;;;;;1.20;1.20;;;;;;;;;;4249717;33;20076;-77
2023/08/06 13:41:02;;;;;;;1.40;1.40;;;;;;;;;;4248987;33;20050;-74
2023/08/06 13:43:29;;;;;;;3.08;1.02;;;;;;;;;;4248380;33;20070;-75
2023/08/06 13:45:55;;;;;;;1.73;1.62;;;;;;;;;;4259099;33;20079;-75
2023/08/06 13:48:21;;;;;;;1.30;1.30;;;;;;;;;;4263598;33;20049;-76
2023/08/06 13:50:48;;;;;;;1.60;1.50;;;;;;;;;;4241438;33;20062;-76
2023/08/06 13:53:14;;;;;;;2.35;2.25;;;;;;;;;;4236729;33;20149;-77
2023/08/06 13:55:40;;;;;;;1.90;1.80;;;;;;;;;;4237507;33;20500;-77
2023/08/06 13:58:06;;;;;;;5.07;1.35;;;;;;;;;;4234711;33;20068;-75
2023/08/06 14:00:32;;;;;;;5.47;1.02;;;;;;;;;;4246818;33;20117;-77
2023/08/06 14:02:59;;;;;;;1.10;1.10;;;;;;;;;;4260071;33;20432;-77
2023/08/06 14:05:25;;;;;;;0.88;0.88;;;;;;;;;;4260303;33;20167;-76
2023/08/06 14:07:51;;;;;;;0.80;0.80;;;;;;;;;;4248414;33;20074;-76
2023/08/06 14:10:17;;;;;;;1.30;1.12;;;;;;;;;;4238002;33;20404;-76
2023/08/06 14:12:43;;;;;;;4.60;1.33;;;;;;;;;;4240333;33;20192;-75
2023/08/06 14:15:10;;;;;;;1.27;1.27;;;;;;;;;;4240497;33;20072;-75
2023/08/06 14:17:37;;;;;;;2.50;1.00;;;;;;;;;;4219389;33;20084;-75
2023/08/06 14:20:04;;;;;;;1.10;1.00;;;;;;;;;;4215294;34;20538;-76
2023/08/06 14:22:31;;;;;;;1.65;1.55;;;;;;;;;;4203615;34;20040;-75
2023/08/06 14:24:57;;;;;;;1.85;0.90;;;;;;;;;;4203907;34;20432;-76
2023/08/06 14:27:24;;;;;;;0.88;0.88;;;;;;;;;;4203373;34;20039;-76
2023/08/06 14:29:51;;;;;;;1.00;1.00;;;;;;;;;;4206145;34;20073;-74
2023/08/06 14:32:17;;;;;;;0.90;0.90;;;;;;;;;;4204851;34;20078;-75
2023/08/06 14:34:44;;;;;;;0.90;0.90;;;;;;;;;;4178573;34;20073;-75
2023/08/06 14:37:10;;;;;;;0.82;0.82;;;;;;;;;;4173036;34;20191;-75
2023/08/06 14:39:36;;;;;;;1.30;1.05;;;;;;;;;;4190851;34;20039;-74
2023/08/06 14:42:03;;;;;;;1.10;1.10;;;;;;;;;;4195117;34;20131;-74
2023/08/06 14:44:29;;;;;;;1.10;1.10;;;;;;;;;;4182225;34;20069;-76
2023/08/06 14:46:56;;;;;;;0.80;0.80;;;;;;;;;;4180316;34;20040;-74
2023/08/06 14:49:22;;;;;;;0.70;0.70;;;;;;;;;;4179866;34;20276;-75
2023/08/06 14:51:48;;;;;;;0.70;0.70;;;;;;;;;;4178837;34;20085;-75
2023/08/06 14:54:14;;;;;;;0.98;0.70;;;;;;;;;;4201565;34;20406;-74
2023/08/06 14:56:40;;;;;;;1.02;1.02;;;;;;;;;;4219647;34;20100;-75
2023/08/06 14:59:06;;;;;;;1.00;1.00;;;;;;;;;;4218713;34;20562;-77
2023/08/06 15:01:32;;;;;;;0.90;0.90;;;;;;;;;;4221401;34;20090;-77
2023/08/06 15:03:58;;;;;;;0.98;0.98;;;;;;;;;;4221805;34;20069;-76
2023/08/06 15:06:25;;;;;;;3.50;1.10;;;;;;;;;;4246856;33;20050;-76
2023/08/06 15:08:51;;;;;;;1.27;1.25;;;;;;;;;;4254660;33;20068;-76
2023/08/06 15:11:17;;;;;;;3.33;1.10;;;;;;;;;;4248542;33;20117;-77
2023/08/06 15:13:43;;;;;;;1.85;1.75;;;;;;;;;;4251823;33;20057;-76
2023/08/06 15:16:10;;;;;;;1.60;1.50;;;;;;;;;;4253022;33;20172;-77
2023/08/06 15:18:43;;;;;;;7.22;1.10;;;;;;;;;;4250847;33;20042;-76
2023/08/06 15:21:10;;;;;;;1.05;1.05;;;;;;;;;;4258865;33;20090;-76
2023/08/06 15:23:36;;;;;;;0.80;0.80;;;;;;;;;;4263340;33;20049;-76
2023/08/06 15:26:02;;;;;;;1.10;1.10;;;;;;;;;;4266185;33;20051;-77
2023/08/06 15:28:29;;;;;;;1.20;1.10;;;;;;;;;;4266557;33;20030;-76
2023/08/06 15:31:01;;;;;;;5.20;1.20;;;;;;;;;;4258888;33;20065;-77
2023/08/06 15:33:27;;;;;;;0.98;0.98;;;;;;;;;;4266189;33;20075;-77
2023/08/06 15:35:53;;;;;;;0.90;0.90;;;;;;;;;;4266564;33;20501;-75
2023/08/06 15:38:19;;;;;;;1.12;1.12;;;;;;;;;;4268158;33;20038;-75
2023/08/06 15:40:46;;;;;;;8.60;1.70;;;;;;;;;;4266716;33;20066;-75
2023/08/06 15:43:13;;;;;;;1.10;1.10;;;;;;;;;;4267105;33;20072;-75
2023/08/06 15:45:39;;;;;;;0.80;0.80;;;;;;;;;;4270700;33;20087;-75
2023/08/06 15:48:05;;;;;;;2.03;0.95;;;;;;;;;;4252164;33;20208;-76
2023/08/06 15:50:31;;;;;;;1.00;1.00;;;;;;;;;;4254583;33;20148;-76
2023/08/06 15:52:58;;;;;;;1.20;1.20;;;;;;;;;;4254200;33;20084;-78
2023/08/06 15:55:24;;;;;;;1.10;1.10;;;;;;;;;;4248192;33;20083;-77
2023/08/06 15:57:50;;;;;;;1.20;1.20;;;;;;;;;;4237608;33;20058;-79
2023/08/06 16:00:16;;;;;;;1.08;1.08;;;;;;;;;;4240126;33;20072;-77
2023/08/06 16:02:44;;;;;;;0.90;0.90;;;;;;;;;;4254650;33;20638;-77
2023/08/06 16:05:10;;;;;;;1.20;1.10;;;;;;;;;;4253940;33;20102;-76
2023/08/06 16:07:36;;;;;;;0.90;0.90;;;;;;;;;;4250880;33;20106;-78
2023/08/06 16:10:03;;;;;;;0.50;0.50;;;;;;;;;;4249308;33;20750;-78
2023/08/06 16:12:29;;;;;;;0.60;0.60;;;;;;;;;;4237328;33;20124;-77
2023/08/06 16:14:55;;;;;;;4.20;1.10;;;;;;;;;;4238501;33;20043;-75
2023/08/06 16:17:21;;;;;;;0.70;0.70;;;;;;;;;;4238272;33;20068;-76
2023/08/06 16:19:48;;;;;;;0.80;0.80;;;;;;;;;;4240199;33;20072;-76
2023/08/06 16:22:14;;;;;;;0.90;0.70;;;;;;;;;;4239545;33;20372;-76
2023/08/06 16:24:41;;;;;;;0.70;0.70;;;;;;;;;;4240416;33;20061;-76
2023/08/06 16:27:07;;;;;;;0.52;0.52;;;;;;;;;;4227301;33;20162;-77
2023/08/06 16:29:34;;;;;;;0.90;0.90;;;;;;;;;;4228432;33;20047;-76
2023/08/06 16:32:00;;;;;;;0.60;0.60;;;;;;;;;;4216728;33;20723;-77